Time;durP1;ratioP1;P1;durP2;ratioP2;P2;SDS_P1;SDS_P2;PMS_P1;PMS_P2;Temp;Humidity;BMP_temperature;BMP_pressure;BME280_temperature;BME280_humidity;BME280_pressure;Samples;Min_cycle;Max_cycle;Signal;HPM_P1;HPM_P2
2022/12/30 00:01:13;;;;;;;;;;;6.20;99.90;;;;;;5003554;28;19921;-86
2022/12/30 00:03:38;;;;;;;;;;;6.20;99.90;;;;;;5026250;28;19917;-86
2022/12/30 00:06:05;;;;;;;;;;;6.20;99.90;;;;;;4990199;28;19917;-86
2022/12/30 00:08:46;;;;;;;;;;;6.20;99.90;;;;;;5013938;28;19980;-86
2022/12/30 00:11:16;;;;;;;;;;;6.10;99.90;;;;;;4999870;28;19928;-86
2022/12/30 00:33:18;;;;;;;;;;;6.20;99.90;;;;;;5003271;28;19928;-85
2022/12/30 00:35:44;;;;;;;;;;;6.80;99.90;;;;;;5004114;28;19925;-86
2022/12/30 00:38:09;;;;;;;;;;;6.10;99.90;;;;;;5018084;28;19921;-85
2022/12/30 00:40:35;;;;;;;;;;;6.90;99.90;;;;;;5001762;28;19918;-86
2022/12/30 00:43:09;;;;;;;;;;;6.10;99.90;;;;;;5020209;28;19960;-85
2022/12/30 00:45:44;;;;;;;;;;;6.00;99.90;;;;;;5008503;28;20007;-86
2022/12/30 00:56:22;;;;;;;;;;;6.00;99.90;;;;;;5024109;28;20396;-86
2022/12/30 00:58:48;;;;;;;;;;;5.90;99.90;;;;;;5023967;28;19964;-86
2022/12/30 01:01:13;;;;;;;;;;;5.80;99.90;;;;;;5006420;28;19923;-86
2022/12/30 01:03:39;;;;;;;;;;;5.80;99.90;;;;;;5019189;28;20032;-86
2022/12/30 01:06:09;;;;;;;;;;;5.90;99.90;;;;;;4984761;28;19967;-86
2022/12/30 01:08:35;;;;;;;;;;;5.70;99.90;;;;;;5003804;28;19925;-86
2022/12/30 01:11:04;;;;;;;;;;;5.80;99.90;;;;;;5003258;28;19917;-86
2022/12/30 01:13:30;;;;;;;;;;;5.70;99.90;;;;;;4993292;28;19921;-86
2022/12/30 01:15:56;;;;;;;;;;;5.80;99.90;;;;;;5005929;28;19916;-86
2022/12/30 01:18:21;;;;;;;;;;;5.60;99.90;;;;;;5007537;28;19964;-86
2022/12/30 01:20:47;;;;;;;;;;;5.60;99.90;;;;;;4985060;28;19928;-86
2022/12/30 01:23:13;;;;;;;;;;;5.60;99.90;;;;;;5009919;28;19957;-86
2022/12/30 01:25:39;;;;;;;;;;;5.60;99.90;;;;;;5010068;28;19931;-86
2022/12/30 01:28:05;;;;;;;;;;;5.60;99.90;;;;;;4982950;28;19923;-86
2022/12/30 01:30:30;;;;;;;;;;;5.50;99.90;;;;;;5006622;28;19918;-86
2022/12/30 01:32:56;;;;;;;;;;;5.50;99.90;;;;;;4999669;28;19980;-86
2022/12/30 01:35:22;;;;;;;;;;;5.70;99.90;;;;;;5023193;28;20364;-86
2022/12/30 01:37:47;;;;;;;;;;;6.50;99.90;;;;;;5007616;28;19921;-86
2022/12/30 01:40:13;;;;;;;;;;;5.70;99.90;;;;;;4983997;28;20361;-85
2022/12/30 01:42:39;;;;;;;;;;;5.50;99.90;;;;;;5019925;28;19961;-85
2022/12/30 01:45:14;;;;;;;;;;;5.60;99.90;;;;;;4996841;28;19940;-84
2022/12/30 01:47:45;;;;;;;;;;;5.60;99.90;;;;;;5006350;28;19924;-84
2022/12/30 01:50:11;;;;;;;;;;;5.60;99.90;;;;;;5001446;28;19940;-85
2022/12/30 01:52:47;;;;;;;;;;;5.60;99.90;;;;;;5024444;28;19917;-84
2022/12/30 01:55:16;;;;;;;;;;;5.60;99.90;;;;;;5008430;28;19917;-84
2022/12/30 01:57:43;;;;;;;;;;;5.60;99.90;;;;;;5027454;28;19924;-85
2022/12/30 02:00:10;;;;;;;;;;;5.70;99.90;;;;;;5004742;28;20348;-85
2022/12/30 02:02:35;;;;;;;;;;;5.70;99.90;;;;;;4995580;28;19968;-84
2022/12/30 02:05:03;;;;;;;;;;;5.80;99.90;;;;;;5025603;28;19922;-85
2022/12/30 02:07:30;;;;;;;;;;;5.90;99.90;;;;;;5010868;28;20407;-84
2022/12/30 02:09:56;;;;;;;;;;;6.70;99.90;;;;;;5030464;28;19967;-85
2022/12/30 02:12:22;;;;;;;;;;;6.20;99.90;;;;;;5022179;28;20358;-85
2022/12/30 02:14:47;;;;;;;;;;;5.80;99.90;;;;;;5006201;28;19925;-85
2022/12/30 02:17:22;;;;;;;;;;;5.80;99.90;;;;;;5003784;28;20278;-85
2022/12/30 02:20:12;;;;;;;;;;;5.90;99.90;;;;;;5029040;28;20011;-85
2022/12/30 02:22:37;;;;;;;;;;;5.90;99.90;;;;;;5032485;28;19920;-85
2022/12/30 02:25:18;;;;;;;;;;;6.00;99.90;;;;;;5034995;28;20293;-85
2022/12/30 02:27:47;;;;;;;;;;;6.10;99.90;;;;;;5024975;28;19917;-85
2022/12/30 02:30:19;;;;;;;;;;;6.10;99.90;;;;;;5011043;28;19921;-85
2022/12/30 02:33:00;;;;;;;;;;;6.10;99.90;;;;;;5012280;28;19928;-86
2022/12/30 02:35:25;;;;;;;;;;;6.00;99.90;;;;;;5005441;28;19925;-85
2022/12/30 02:38:06;;;;;;;;;;;5.90;99.90;;;;;;5005635;28;19925;-84
2022/12/30 02:46:10;;;;;;;;;;;5.80;99.90;;;;;;5021078;28;19921;-84
2022/12/30 02:48:37;;;;;;;;;;;5.80;99.90;;;;;;5018107;28;20278;-84
2022/12/30 02:53:48;;;;;;;;;;;5.80;99.90;;;;;;5024650;28;19924;-84
2022/12/30 02:56:14;;;;;;;;;;;6.60;99.90;;;;;;5029724;28;19917;-84
2022/12/30 03:03:57;;;;;;;;;;;5.80;99.90;;;;;;4994905;28;20011;-84
2022/12/30 03:04:57;;;;;;;;;;;5.90;99.90;;;;;;5027351;28;19953;-83
2022/12/30 03:07:40;;;;;;;;;;;5.90;99.90;;;;;;5019428;28;19917;-84
2022/12/30 03:13:16;;;;;;;;;;;5.90;99.90;;;;;;5019807;28;20320;-84
2022/12/30 03:15:47;;;;;;;;;;;5.90;99.90;;;;;;5023293;28;20960;-83
2022/12/30 03:18:14;;;;;;;;;;;5.80;99.90;;;;;;5012695;28;19960;-84
2022/12/30 03:20:41;;;;;;;;;;;5.80;99.90;;;;;;5008934;28;19921;-84
2022/12/30 03:28:38;;;;;;;;;;;5.70;99.90;;;;;;5006738;28;19921;-84
2022/12/30 03:31:09;;;;;;;;;;;5.60;99.90;;;;;;5018439;28;19917;-84
2022/12/30 03:33:35;;;;;;;;;;;5.40;99.90;;;;;;5026235;28;19928;-84
2022/12/30 03:36:08;;;;;;;;;;;5.90;99.90;;;;;;4996297;28;19965;-84
2022/12/30 03:38:36;;;;;;;;;;;5.40;99.90;;;;;;5020581;28;19911;-83
2022/12/30 03:41:03;;;;;;;;;;;5.60;99.90;;;;;;5028533;28;20320;-84
2022/12/30 03:43:30;;;;;;;;;;;5.40;99.90;;;;;;5026026;28;20279;-84
2022/12/30 03:45:56;;;;;;;;;;;5.40;99.90;;;;;;5021593;28;19925;-84
2022/12/30 03:48:21;;;;;;;;;;;5.50;99.90;;;;;;5024967;28;19917;-84
2022/12/30 03:50:47;;;;;;;;;;;5.40;99.90;;;;;;5007104;28;19924;-85
2022/12/30 03:53:12;;;;;;;;;;;5.30;99.90;;;;;;5002650;28;19952;-84
2022/12/30 03:55:41;;;;;;;;;;;5.30;99.90;;;;;;5014991;28;19964;-84
2022/12/30 03:58:06;;;;;;;;;;;5.20;99.90;;;;;;4986569;28;19962;-83
2022/12/30 04:00:32;;;;;;;;;;;5.30;99.90;;;;;;4994769;28;20342;-84
2022/12/30 04:02:57;;;;;;;;;;;5.20;99.90;;;;;;5014117;28;20157;-84
2022/12/30 04:05:23;;;;;;;;;;;6.00;99.90;;;;;;5020507;28;19959;-84
2022/12/30 04:07:49;;;;;;;;;;;5.40;99.90;;;;;;5033569;28;19917;-84
2022/12/30 04:10:14;;;;;;;;;;;5.20;99.90;;;;;;4991043;28;19925;-84
2022/12/30 04:12:40;;;;;;;;;;;5.20;99.90;;;;;;5022505;28;19949;-85
2022/12/30 04:15:06;;;;;;;;;;;6.10;99.90;;;;;;5004218;28;19917;-84
2022/12/30 04:17:32;;;;;;;;;;;5.30;99.90;;;;;;5001688;28;19917;-84
2022/12/30 04:19:57;;;;;;;;;;;5.30;99.90;;;;;;5000247;28;19925;-84
2022/12/30 04:22:23;;;;;;;;;;;5.30;99.90;;;;;;4992138;28;19917;-84
2022/12/30 04:24:48;;;;;;;;;;;5.30;99.90;;;;;;5000493;28;19987;-84
2022/12/30 04:27:14;;;;;;;;;;;5.30;99.90;;;;;;5007799;28;19963;-84
2022/12/30 04:29:39;;;;;;;;;;;6.10;99.90;;;;;;5003691;28;19940;-85
2022/12/30 04:32:05;;;;;;;;;;;5.30;99.90;;;;;;5028384;28;19960;-85
2022/12/30 04:34:31;;;;;;;;;;;5.30;99.90;;;;;;4986908;28;19922;-84
2022/12/30 04:36:56;;;;;;;;;;;5.30;99.90;;;;;;5005793;28;19924;-84
2022/12/30 04:39:22;;;;;;;;;;;5.30;99.90;;;;;;5021577;28;19925;-84
2022/12/30 04:41:47;;;;;;;;;;;5.30;99.90;;;;;;4997502;28;19922;-84
2022/12/30 04:44:13;;;;;;;;;;;5.40;99.90;;;;;;5012232;28;19996;-84
2022/12/30 04:46:39;;;;;;;;;;;5.50;99.90;;;;;;5003502;28;19918;-84
2022/12/30 04:49:04;;;;;;;;;;;5.30;99.90;;;;;;5019488;28;19921;-85
2022/12/30 04:51:30;;;;;;;;;;;5.70;99.90;;;;;;5005945;28;19916;-84
2022/12/30 04:53:56;;;;;;;;;;;6.00;99.90;;;;;;5012070;28;21917;-85
2022/12/30 04:56:21;;;;;;;;;;;5.30;99.90;;;;;;5005680;28;20007;-84
2022/12/30 04:58:47;;;;;;;;;;;5.40;99.90;;;;;;4987123;28;19917;-84
2022/12/30 05:01:12;;;;;;;;;;;4.60;99.90;;;;;;5020041;28;19972;-84
2022/12/30 05:03:38;;;;;;;;;;;5.20;99.90;;;;;;5008352;28;19924;-84
2022/12/30 05:06:04;;;;;;;;;;;5.30;99.90;;;;;;5024919;28;19918;-84
2022/12/30 05:08:29;;;;;;;;;;;5.20;99.90;;;;;;5018678;28;20422;-84
2022/12/30 05:10:55;;;;;;;;;;;5.30;99.90;;;;;;5026633;28;19921;-85
2022/12/30 05:13:20;;;;;;;;;;;6.00;99.90;;;;;;5000339;28;20574;-84
2022/12/30 05:15:46;;;;;;;;;;;5.30;99.90;;;;;;5001652;28;19917;-85
2022/12/30 05:18:12;;;;;;;;;;;5.40;99.90;;;;;;4988387;28;19921;-85
2022/12/30 05:20:37;;;;;;;;;;;5.40;99.90;;;;;;5007199;28;19940;-85
2022/12/30 05:23:03;;;;;;;;;;;5.40;99.90;;;;;;5003927;28;19917;-85
2022/12/30 05:28:13;;;;;;;;;;;5.50;99.90;;;;;;5018274;28;20297;-84
2022/12/30 05:30:38;;;;;;;;;;;5.60;99.90;;;;;;5008104;28;19924;-85
2022/12/30 05:33:04;;;;;;;;;;;5.60;99.90;;;;;;5009870;28;19971;-85
2022/12/30 05:35:30;;;;;;;;;;;5.50;99.90;;;;;;4999790;28;20282;-85
2022/12/30 05:37:55;;;;;;;;;;;5.50;99.90;;;;;;5007790;28;20004;-84
2022/12/30 05:40:21;;;;;;;;;;;5.40;99.90;;;;;;5021311;28;20358;-85
2022/12/30 05:42:46;;;;;;;;;;;6.50;99.90;;;;;;5009908;28;20026;-85
2022/12/30 05:45:15;;;;;;;;;;;6.00;99.90;;;;;;5016522;28;19949;-84
2022/12/30 05:47:41;;;;;;;;;;;6.00;99.90;;;;;;5021788;28;19917;-85
2022/12/30 05:50:06;;;;;;;;;;;5.50;99.90;;;;;;5005389;28;20292;-85
2022/12/30 05:52:32;;;;;;;;;;;5.50;99.90;;;;;;5005245;28;19967;-84
2022/12/30 05:54:57;;;;;;;;;;;5.80;99.90;;;;;;4992562;28;19975;-85
2022/12/30 05:57:23;;;;;;;;;;;5.50;99.90;;;;;;4987866;28;19924;-85
2022/12/30 05:59:49;;;;;;;;;;;5.90;99.90;;;;;;5002643;28;19917;-84
2022/12/30 06:02:14;;;;;;;;;;;5.40;99.90;;;;;;5004911;28;19922;-84
2022/12/30 06:04:40;;;;;;;;;;;5.30;99.90;;;;;;4990942;28;20365;-85
2022/12/30 06:07:05;;;;;;;;;;;5.70;99.90;;;;;;5021361;28;19968;-86
2022/12/30 06:09:31;;;;;;;;;;;5.30;99.90;;;;;;4986163;28;19936;-84
2022/12/30 06:11:56;;;;;;;;;;;5.20;99.90;;;;;;5012419;28;19917;-85
2022/12/30 06:14:22;;;;;;;;;;;5.10;99.90;;;;;;4991751;28;19921;-85
2022/12/30 06:16:48;;;;;;;;;;;5.10;99.90;;;;;;5002426;28;19917;-85
2022/12/30 06:19:14;;;;;;;;;;;5.60;99.90;;;;;;5004911;28;19924;-85
2022/12/30 06:21:39;;;;;;;;;;;5.00;99.90;;;;;;5002362;28;19925;-85
2022/12/30 06:24:06;;;;;;;;;;;4.90;99.90;;;;;;5001289;28;20416;-85
2022/12/30 06:26:31;;;;;;;;;;;4.90;99.90;;;;;;4997338;28;19917;-84
2022/12/30 06:28:57;;;;;;;;;;;4.80;99.90;;;;;;5006833;28;19921;-85
2022/12/30 06:31:23;;;;;;;;;;;5.80;99.90;;;;;;5011364;28;19968;-85
2022/12/30 06:33:48;;;;;;;;;;;5.60;99.90;;;;;;4988456;28;20258;-85
2022/12/30 06:36:14;;;;;;;;;;;4.70;99.90;;;;;;5023268;28;19932;-85
2022/12/30 06:38:39;;;;;;;;;;;4.70;99.90;;;;;;5002378;28;20366;-84
2022/12/30 06:41:05;;;;;;;;;;;6.00;99.90;;;;;;4995490;28;19917;-85
2022/12/30 06:43:31;;;;;;;;;;;4.70;99.90;;;;;;5025557;28;19919;-85
2022/12/30 06:45:57;;;;;;;;;;;6.20;99.90;;;;;;4989533;28;19943;-84
2022/12/30 06:48:22;;;;;;;;;;;5.40;99.90;;;;;;5018554;28;19923;-85
2022/12/30 06:50:48;;;;;;;;;;;4.60;99.90;;;;;;5001048;28;19944;-85
2022/12/30 06:53:14;;;;;;;;;;;4.70;99.90;;;;;;5000219;28;19909;-85
2022/12/30 06:55:39;;;;;;;;;;;4.60;99.90;;;;;;4991134;28;19917;-85
2022/12/30 06:58:05;;;;;;;;;;;4.70;99.90;;;;;;4984754;28;19921;-86
2022/12/30 07:00:31;;;;;;;;;;;6.00;99.90;;;;;;4985837;28;19988;-85
2022/12/30 07:02:56;;;;;;;;;;;4.80;99.90;;;;;;5033981;28;19917;-85
2022/12/30 07:05:22;;;;;;;;;;;4.70;99.90;;;;;;5010387;28;19931;-85
2022/12/30 07:07:48;;;;;;;;;;;5.70;99.90;;;;;;5007913;28;19932;-85
2022/12/30 07:10:14;;;;;;;;;;;4.70;99.90;;;;;;5012211;28;19921;-86
2022/12/30 07:12:39;;;;;;;;;;;4.70;99.90;;;;;;4991867;28;19917;-85
2022/12/30 07:15:06;;;;;;;;;;;4.70;99.90;;;;;;5012085;28;19959;-85
2022/12/30 07:17:31;;;;;;;;;;;4.70;99.90;;;;;;4994754;28;19917;-86
2022/12/30 07:19:57;;;;;;;;;;;4.80;99.90;;;;;;5007237;28;20622;-85
2022/12/30 07:22:23;;;;;;;;;;;4.70;99.90;;;;;;5006879;28;19996;-85
2022/12/30 07:24:48;;;;;;;;;;;6.00;99.90;;;;;;5008652;28;19917;-86
2022/12/30 07:27:14;;;;;;;;;;;4.60;99.90;;;;;;5010165;28;20389;-84
2022/12/30 07:29:39;;;;;;;;;;;4.70;99.90;;;;;;5012109;28;19940;-81
2022/12/30 07:32:05;;;;;;;;;;;4.90;99.90;;;;;;5009054;28;20007;-82
2022/12/30 07:34:31;;;;;;;;;;;4.80;99.90;;;;;;4990262;28;19971;-80
2022/12/30 07:36:57;;;;;;;;;;;5.60;99.90;;;;;;4995172;28;19922;-80
2022/12/30 07:39:22;;;;;;;;;;;5.50;99.90;;;;;;5010186;28;19959;-80
2022/12/30 07:41:48;;;;;;;;;;;4.80;99.90;;;;;;5024614;28;19923;-80
2022/12/30 07:44:13;;;;;;;;;;;4.80;99.90;;;;;;5016181;28;19918;-78
2022/12/30 07:46:39;;;;;;;;;;;4.70;99.90;;;;;;5012164;28;20396;-80
2022/12/30 07:49:05;;;;;;;;;;;4.80;99.90;;;;;;5006984;28;20091;-79
2022/12/30 07:51:30;;;;;;;;;;;4.70;99.90;;;;;;4996705;28;19918;-79
2022/12/30 07:53:57;;;;;;;;;;;4.70;99.90;;;;;;4987399;28;19969;-81
2022/12/30 07:56:22;;;;;;;;;;;5.50;99.90;;;;;;5002025;28;19996;-80
2022/12/30 07:58:48;;;;;;;;;;;4.80;99.90;;;;;;4987186;28;19996;-82
2022/12/30 08:01:14;;;;;;;;;;;4.70;99.90;;;;;;5028900;28;20297;-80
2022/12/30 08:03:43;;;;;;;;;;;4.90;99.90;;;;;;5005273;28;19917;-81
2022/12/30 08:06:12;;;;;;;;;;;4.60;99.90;;;;;;5007093;28;19921;-85
2022/12/30 08:08:41;;;;;;;;;;;4.80;99.90;;;;;;5023678;28;19921;-84
2022/12/30 08:11:08;;;;;;;;;;;4.90;99.90;;;;;;5027668;28;19935;-84
2022/12/30 08:13:34;;;;;;;;;;;6.00;99.90;;;;;;5000414;28;20316;-81
2022/12/30 08:16:04;;;;;;;;;;;5.20;99.90;;;;;;5027806;28;20326;-81
2022/12/30 08:18:30;;;;;;;;;;;4.80;99.90;;;;;;4989763;28;19917;-81
2022/12/30 08:20:58;;;;;;;;;;;4.90;99.90;;;;;;5006441;28;19924;-82
2022/12/30 08:23:23;;;;;;;;;;;4.80;99.90;;;;;;5006811;28;19923;-81
2022/12/30 08:25:49;;;;;;;;;;;4.80;99.90;;;;;;5005768;28;20011;-81
2022/12/30 08:28:15;;;;;;;;;;;4.90;99.90;;;;;;4995163;28;20422;-81
2022/12/30 08:30:40;;;;;;;;;;;5.00;99.90;;;;;;5005624;28;19944;-81
2022/12/30 08:33:06;;;;;;;;;;;4.90;99.90;;;;;;4989236;28;19957;-82
2022/12/30 08:35:31;;;;;;;;;;;4.90;99.90;;;;;;5024730;28;19917;-82
2022/12/30 08:37:57;;;;;;;;;;;5.20;99.90;;;;;;5027096;28;19927;-81
2022/12/30 08:40:23;;;;;;;;;;;5.00;99.90;;;;;;4993455;28;20381;-82
2022/12/30 08:42:48;;;;;;;;;;;5.10;99.90;;;;;;5003945;28;19917;-82
2022/12/30 08:45:14;;;;;;;;;;;5.10;99.90;;;;;;5019691;28;19924;-81
2022/12/30 08:47:39;;;;;;;;;;;5.20;99.90;;;;;;5022018;28;20357;-82
2022/12/30 08:50:05;;;;;;;;;;;5.20;99.90;;;;;;5005497;28;19916;-82
2022/12/30 08:52:31;;;;;;;;;;;5.30;99.90;;;;;;5022207;28;19916;-82
2022/12/30 08:54:56;;;;;;;;;;;5.30;99.90;;;;;;4991988;28;19929;-82
2022/12/30 08:57:22;;;;;;;;;;;5.40;99.90;;;;;;5007587;28;19982;-83
2022/12/30 08:59:47;;;;;;;;;;;5.20;99.90;;;;;;5004622;28;20377;-83
2022/12/30 09:02:14;;;;;;;;;;;5.30;99.90;;;;;;4990242;28;20361;-82
2022/12/30 09:04:40;;;;;;;;;;;6.10;99.90;;;;;;5023539;28;19917;-81
2022/12/30 09:07:06;;;;;;;;;;;6.00;99.90;;;;;;5020437;28;20063;-83
2022/12/30 09:09:32;;;;;;;;;;;5.40;99.90;;;;;;4990102;28;19924;-81
2022/12/30 09:11:57;;;;;;;;;;;5.60;99.90;;;;;;5005665;28;20369;-81
2022/12/30 09:14:23;;;;;;;;;;;5.50;99.90;;;;;;5008195;28;19921;-81
2022/12/30 09:16:49;;;;;;;;;;;5.50;99.90;;;;;;5012331;28;19924;-81
2022/12/30 09:19:15;;;;;;;;;;;5.60;99.90;;;;;;5015029;28;19916;-79
2022/12/30 09:21:40;;;;;;;;;;;5.60;99.90;;;;;;5008016;28;19956;-80
2022/12/30 09:24:06;;;;;;;;;;;5.60;99.90;;;;;;5012829;28;19917;-86
2022/12/30 09:26:32;;;;;;;;;;;5.60;99.90;;;;;;5001848;28;19922;-87
2022/12/30 09:28:58;;;;;;;;;;;6.10;99.90;;;;;;5011417;28;19996;-85
2022/12/30 09:31:24;;;;;;;;;;;5.60;99.90;;;;;;5045027;28;19918;-90
2022/12/30 09:33:50;;;;;;;;;;;5.60;99.90;;;;;;5017094;28;19925;-87
2022/12/30 09:36:16;;;;;;;;;;;5.60;99.90;;;;;;5044295;28;19928;-87
2022/12/30 09:38:42;;;;;;;;;;;5.60;99.90;;;;;;5009229;28;19956;-88
2022/12/30 09:43:15;;;;;;;;;;;5.60;99.90;;;;;;5012212;28;19921;-87
2022/12/30 09:44:23;;;;;;;;;;;5.70;99.90;;;;;;5035313;28;19931;-86
2022/12/30 09:46:52;;;;;;;;;;;5.70;99.90;;;;;;5012164;28;19968;-89
2022/12/30 09:49:18;;;;;;;;;;;5.70;99.90;;;;;;5008265;28;19921;-88
2022/12/30 09:51:45;;;;;;;;;;;5.70;99.90;;;;;;5024419;28;19928;-87
2022/12/30 09:54:13;;;;;;;;;;;5.80;99.90;;;;;;5002858;28;19976;-86
2022/12/30 09:56:42;;;;;;;;;;;6.40;99.90;;;;;;5024975;28;19917;-87
2022/12/30 09:59:24;;;;;;;;;;;5.90;99.90;;;;;;5010975;28;19923;-88
2022/12/30 10:01:53;;;;;;;;;;;5.80;99.90;;;;;;5019424;28;19947;-88
2022/12/30 10:04:20;;;;;;;;;;;6.20;99.90;;;;;;5033665;28;19917;-88
2022/12/30 10:06:57;;;;;;;;;;;6.00;99.90;;;;;;5016597;28;19976;-86
2022/12/30 10:09:36;;;;;;;;;;;6.00;99.90;;;;;;5024235;28;20312;-85
2022/12/30 10:12:02;;;;;;;;;;;6.10;99.90;;;;;;5013425;28;19925;-88
2022/12/30 10:14:32;;;;;;;;;;;6.10;99.90;;;;;;5012799;28;19925;-88
2022/12/30 10:17:01;;;;;;;;;;;6.10;99.90;;;;;;5021882;28;19921;-89
2022/12/30 10:19:27;;;;;;;;;;;6.30;99.90;;;;;;5008011;28;19929;-90
2022/12/30 10:21:57;;;;;;;;;;;6.30;99.90;;;;;;5011078;28;19983;-89
2022/12/30 10:24:25;;;;;;;;;;;6.20;99.90;;;;;;5027844;28;19917;-88
2022/12/30 10:26:51;;;;;;;;;;;6.40;99.90;;;;;;5023135;28;19931;-88
2022/12/30 10:29:18;;;;;;;;;;;6.40;99.90;;;;;;5008439;28;19917;-87
2022/12/30 10:31:45;;;;;;;;;;;6.40;99.90;;;;;;5025205;28;19979;-90
2022/12/30 10:34:15;;;;;;;;;;;6.50;99.90;;;;;;5006779;28;19928;-89
2022/12/30 10:36:47;;;;;;;;;;;6.50;99.90;;;;;;5027643;28;19917;-89
2022/12/30 10:39:24;;;;;;;;;;;6.60;99.90;;;;;;5006040;28;19917;-89
2022/12/30 10:42:06;;;;;;;;;;;6.70;99.90;;;;;;5015551;28;20009;-88
2022/12/30 10:44:47;;;;;;;;;;;6.80;99.90;;;;;;5020366;28;20013;-86
2022/12/30 10:47:19;;;;;;;;;;;6.80;99.90;;;;;;5026972;28;19987;-87
2022/12/30 10:50:01;;;;;;;;;;;6.90;99.90;;;;;;5019493;28;20388;-89
2022/12/30 10:52:27;;;;;;;;;;;7.00;99.90;;;;;;5024386;28;19917;-86
2022/12/30 10:54:52;;;;;;;;;;;7.20;99.90;;;;;;5025695;28;19921;-89
2022/12/30 11:00:21;;;;;;;;;;;7.30;99.90;;;;;;5025679;28;19918;-89
2022/12/30 11:03:13;;;;;;;;;;;7.30;99.90;;;;;;4995542;28;19917;-89
2022/12/30 11:05:41;;;;;;;;;;;7.40;99.90;;;;;;5036603;28;20046;-89
2022/12/30 11:08:18;;;;;;;;;;;7.40;99.90;;;;;;5004317;28;19924;-90
2022/12/30 11:10:56;;;;;;;;;;;7.50;99.90;;;;;;5003144;28;20290;-89
2022/12/30 11:16:06;;;;;;;;;;;7.50;99.90;;;;;;5024809;28;19924;-88
2022/12/30 11:18:32;;;;;;;;;;;7.60;99.90;;;;;;4990400;28;19916;-88
2022/12/30 11:20:59;;;;;;;;;;;7.50;99.90;;;;;;5002792;28;20033;-89
2022/12/30 11:23:24;;;;;;;;;;;7.40;99.90;;;;;;5025046;28;19918;-89
2022/12/30 11:25:50;;;;;;;;;;;7.40;99.90;;;;;;5009237;28;19921;-89
2022/12/30 11:28:24;;;;;;;;;;;7.40;99.90;;;;;;5030589;28;19917;-88
2022/12/30 11:30:53;;;;;;;;;;;7.40;99.90;;;;;;5004005;28;20432;-88
2022/12/30 11:33:29;;;;;;;;;;;7.40;99.90;;;;;;5007113;28;19921;-88
2022/12/30 11:36:09;;;;;;;;;;;7.30;99.90;;;;;;5016812;28;20366;-87
2022/12/30 11:38:36;;;;;;;;;;;7.40;99.90;;;;;;5019623;28;19960;-88
2022/12/30 11:41:17;;;;;;;;;;;7.40;99.90;;;;;;5012041;28;19917;-87
2022/12/30 11:43:43;;;;;;;;;;;7.40;99.90;;;;;;5025332;28;19921;-87
2022/12/30 11:46:11;;;;;;;;;;;7.50;99.90;;;;;;5001261;28;20000;-87
2022/12/30 11:48:43;;;;;;;;;;;7.40;99.90;;;;;;5026848;28;19917;-88
2022/12/30 11:51:22;;;;;;;;;;;7.50;99.90;;;;;;5018926;28;19923;-88
2022/12/30 11:53:48;;;;;;;;;;;7.60;99.90;;;;;;5002818;28;20514;-87
2022/12/30 11:56:20;;;;;;;;;;;7.70;99.90;;;;;;5007307;28;19917;-87
2022/12/30 11:58:46;;;;;;;;;;;7.70;99.90;;;;;;5003840;28;19921;-88
2022/12/30 12:01:11;;;;;;;;;;;7.70;99.90;;;;;;5005836;28;19917;-87
2022/12/30 12:03:47;;;;;;;;;;;7.70;99.90;;;;;;5018969;28;19967;-88
2022/12/30 12:06:13;;;;;;;;;;;7.80;99.90;;;;;;4997078;28;19917;-87
2022/12/30 12:08:42;;;;;;;;;;;7.80;99.90;;;;;;5022032;28;19917;-88
2022/12/30 12:11:15;;;;;;;;;;;7.80;99.90;;;;;;5008753;28;19920;-88
2022/12/30 12:13:46;;;;;;;;;;;7.90;99.90;;;;;;5010201;28;19922;-88
2022/12/30 12:16:14;;;;;;;;;;;7.90;99.90;;;;;;5001403;28;19917;-88
2022/12/30 12:18:42;;;;;;;;;;;7.80;99.90;;;;;;5011430;28;19917;-88
2022/12/30 12:21:16;;;;;;;;;;;7.90;99.90;;;;;;5022262;28;20059;-89
2022/12/30 12:23:51;;;;;;;;;;;7.80;99.90;;;;;;5001454;28;20393;-87
2022/12/30 12:26:17;;;;;;;;;;;7.80;99.90;;;;;;5011047;28;19925;-88
2022/12/30 12:28:43;;;;;;;;;;;7.90;99.90;;;;;;5025014;28;19917;-88
2022/12/30 12:31:09;;;;;;;;;;;7.90;99.90;;;;;;4989521;28;20013;-88
2022/12/30 12:33:34;;;;;;;;;;;8.00;99.90;;;;;;5003358;28;20393;-87
2022/12/30 12:36:06;;;;;;;;;;;8.10;99.90;;;;;;5026601;28;19917;-89
2022/12/30 12:38:34;;;;;;;;;;;8.00;99.90;;;;;;5031830;28;20375;-90
2022/12/30 12:41:09;;;;;;;;;;;7.80;99.90;;;;;;5004772;28;19917;-89
2022/12/30 12:43:45;;;;;;;;;;;8.00;99.90;;;;;;5010472;28;19971;-89
2022/12/30 12:46:11;;;;;;;;;;;8.10;99.90;;;;;;5010263;28;20000;-90
2022/12/30 12:48:41;;;;;;;;;;;8.10;99.90;;;;;;5026468;28;20021;-90
2022/12/30 12:51:19;;;;;;;;;;;8.20;99.90;;;;;;5030855;28;20044;-89
2022/12/30 12:53:54;;;;;;;;;;;8.20;99.90;;;;;;5028318;28;20301;-89
2022/12/30 12:56:29;;;;;;;;;;;8.30;99.90;;;;;;5005146;28;20484;-87
2022/12/30 12:59:01;;;;;;;;;;;8.30;99.90;;;;;;5008058;28;19925;-90
2022/12/30 13:01:32;;;;;;;;;;;8.30;99.90;;;;;;5021388;28;19924;-89
2022/12/30 13:04:10;;;;;;;;;;;8.40;99.90;;;;;;5006426;28;20012;-90
2022/12/30 13:06:39;;;;;;;;;;;8.30;99.90;;;;;;5012149;28;19974;-89
2022/12/30 13:09:13;;;;;;;;;;;8.40;99.90;;;;;;5005438;28;19917;-90
2022/12/30 13:12:02;;;;;;;;;;;8.40;99.90;;;;;;5030337;28;19943;-89
2022/12/30 13:14:27;;;;;;;;;;;8.40;99.90;;;;;;5025237;28;19979;-91
2022/12/30 13:16:54;;;;;;;;;;;8.50;99.90;;;;;;5024624;28;19937;-90
2022/12/30 13:19:23;;;;;;;;;;;8.40;99.90;;;;;;5008432;28;19959;-89
2022/12/30 13:21:51;;;;;;;;;;;8.40;99.90;;;;;;5007651;28;20289;-89
2022/12/30 13:24:21;;;;;;;;;;;8.40;99.90;;;;;;5012490;28;19917;-88
2022/12/30 13:26:47;;;;;;;;;;;8.40;99.90;;;;;;5009834;28;19917;-89
2022/12/30 13:29:13;;;;;;;;;;;8.50;99.90;;;;;;5005860;28;20317;-84
2022/12/30 13:31:45;;;;;;;;;;;8.50;99.90;;;;;;5002004;28;20353;-89
2022/12/30 13:34:17;;;;;;;;;;;8.50;99.90;;;;;;5006739;28;19925;-89
2022/12/30 13:36:52;;;;;;;;;;;8.50;99.90;;;;;;5022186;28;19940;-89
2022/12/30 13:39:23;;;;;;;;;;;8.50;99.90;;;;;;4999087;28;20166;-84
2022/12/30 13:41:49;;;;;;;;;;;8.50;99.90;;;;;;5003585;28;19917;-85
2022/12/30 13:44:17;;;;;;;;;;;8.60;99.90;;;;;;5020654;28;19924;-84
2022/12/30 13:46:48;;;;;;;;;;;8.60;99.90;;;;;;5011452;28;19917;-82
2022/12/30 13:49:16;;;;;;;;;;;8.60;99.90;;;;;;5006067;28;20366;-86
2022/12/30 13:51:51;;;;;;;;;;;8.70;99.90;;;;;;5003885;28;19956;-88
2022/12/30 13:54:18;;;;;;;;;;;8.70;99.90;;;;;;5001266;28;20028;-89
2022/12/30 13:56:45;;;;;;;;;;;8.70;99.90;;;;;;4992822;28;20424;-86
2022/12/30 13:59:22;;;;;;;;;;;8.70;99.90;;;;;;5017425;28;19917;-85
2022/12/30 14:01:48;;;;;;;;;;;8.80;99.90;;;;;;5005582;28;19921;-84
2022/12/30 14:04:29;;;;;;;;;;;9.00;99.90;;;;;;5005239;28;19966;-84
2022/12/30 14:06:55;;;;;;;;;;;9.00;99.90;;;;;;5002767;28;19971;-86
2022/12/30 14:09:25;;;;;;;;;;;8.90;99.90;;;;;;5005685;28;19921;-84
2022/12/30 14:12:03;;;;;;;;;;;8.90;99.90;;;;;;5003486;28;19918;-84
2022/12/30 14:14:30;;;;;;;;;;;8.90;99.90;;;;;;5001600;28;19924;-85
2022/12/30 14:17:01;;;;;;;;;;;8.90;99.90;;;;;;5023941;28;19971;-83
2022/12/30 14:19:36;;;;;;;;;;;8.90;99.90;;;;;;5019109;28;21426;-86
2022/12/30 14:22:02;;;;;;;;;;;9.00;99.90;;;;;;5021556;28;19917;-84
2022/12/30 14:24:31;;;;;;;;;;;9.00;99.90;;;;;;5023565;28;20389;-86
2022/12/30 14:27:22;;;;;;;;;;;9.00;99.90;;;;;;4993625;28;20024;-91
2022/12/30 14:29:58;;;;;;;;;;;9.00;99.90;;;;;;5008710;28;19928;-90
2022/12/30 14:32:25;;;;;;;;;;;9.50;99.90;;;;;;5005761;28;19916;-86
2022/12/30 14:34:56;;;;;;;;;;;9.00;99.90;;;;;;5001857;28;19952;-88
2022/12/30 14:37:22;;;;;;;;;;;9.10;99.90;;;;;;5020068;28;19999;-86
2022/12/30 14:39:51;;;;;;;;;;;9.00;99.90;;;;;;4992137;28;20011;-85
2022/12/30 14:42:35;;;;;;;;;;;9.10;99.90;;;;;;5020605;28;19927;-84
2022/12/30 14:45:01;;;;;;;;;;;9.10;99.90;;;;;;4993659;28;19917;-84
2022/12/30 14:47:44;;;;;;;;;;;9.00;99.90;;;;;;5022818;28;19925;-84
2022/12/30 14:50:11;;;;;;;;;;;9.00;99.90;;;;;;5003253;28;19924;-87
2022/12/30 14:52:53;;;;;;;;;;;8.90;99.90;;;;;;5007907;28;19935;-86
2022/12/30 14:55:24;;;;;;;;;;;8.90;99.90;;;;;;5017042;28;19975;-86
2022/12/30 14:58:02;;;;;;;;;;;8.90;99.90;;;;;;5018999;28;19924;-87
2022/12/30 15:00:29;;;;;;;;;;;8.80;99.90;;;;;;5000208;28;20317;-85
2022/12/30 15:02:56;;;;;;;;;;;8.70;99.90;;;;;;5014888;28;19917;-86
2022/12/30 15:05:51;;;;;;;;;;;8.60;99.90;;;;;;5002728;28;19953;-85
2022/12/30 15:08:17;;;;;;;;;;;8.60;99.90;;;;;;4989076;28;19917;-86
2022/12/30 15:10:43;;;;;;;;;;;8.50;99.90;;;;;;5003545;28;19918;-83
2022/12/30 15:13:15;;;;;;;;;;;8.40;99.90;;;;;;5001321;28;19927;-83
2022/12/30 15:15:44;;;;;;;;;;;8.40;99.90;;;;;;5003053;28;19917;-84
2022/12/30 15:18:36;;;;;;;;;;;8.50;99.90;;;;;;5020660;28;19918;-87
2022/12/30 15:21:17;;;;;;;;;;;8.50;99.90;;;;;;4998136;28;19927;-84
2022/12/30 15:23:43;;;;;;;;;;;8.50;99.90;;;;;;5018515;28;19956;-84
2022/12/30 15:26:14;;;;;;;;;;;8.50;99.90;;;;;;4989119;28;20339;-87
2022/12/30 15:28:39;;;;;;;;;;;8.60;99.90;;;;;;5020622;28;20381;-85
2022/12/30 15:31:16;;;;;;;;;;;8.70;99.90;;;;;;5020334;28;19917;-86
2022/12/30 15:33:51;;;;;;;;;;;8.70;99.90;;;;;;5017689;28;19921;-86
2022/12/30 15:36:17;;;;;;;;;;;8.60;99.90;;;;;;5021354;28;19972;-83